Grande Prairie

Airport
ICAO code: 
CYQU
Summary
ICAO Region: 
NAM
Territory: 
Location: 
Grande Prairie, Alberta,
Coordinates: 
Aerial View: 
55° 10' 46.916" N, 118° 53' 6.008" W
Metar
Observation
CYQU 271100Z 17004KT 25SM FEW140 BKN220 M10/M13 A3002 RMK AC1CI4 SLP208
Station
Grande Prairie, Alta.
Date/Time
2021-11-27 11:00:00
Wind direction
170°
Wind speed
04 kts
Lowest cloud amount
few clouds
Temperature
-10°C
Dew point
-13°C
Humidity
78%
Weather condition
n/a

Description

Grande Prairie Airport is located 3 nm west northwest of Grande Prairie, Alberta, Canada.

Climatology

Subarctic climate (Köppen climate classification Dfc) - long, usually very cold winters, and short, cool to mild summers.

Runways

Designator Length Width Surface Rops
7/25 1890 61 ASP Yes/Yes
12/30 1981 61 ASP Yes/Yes
Airport map: 
Aerial View: 

SKYbrary Partners:

Safety knowledge contributed by: